Time;durP1;ratioP1;P1;durP2;ratioP2;P2;SDS_P1;SDS_P2;PMS_P1;PMS_P2;Temp;Humidity;BMP_temperature;BMP_pressure;BME280_temperature;BME280_humidity;BME280_pressure;Samples;Min_cycle;Max_cycle;Signal;HPM_P1;HPM_P2
2023/12/27 00:01:17;;;;;;;8.82;3.67;;;7.40;99.90;;;;;;5053887;28;20298;-58
2023/12/27 00:03:45;;;;;;;6.47;3.17;;;7.40;99.90;;;;;;5042564;28;20206;-60
2023/12/27 00:06:13;;;;;;;7.88;3.70;;;7.40;99.90;;;;;;5052951;28;20232;-58
2023/12/27 00:08:41;;;;;;;9.68;3.53;;;7.40;99.90;;;;;;5050754;28;20194;-59
2023/12/27 00:11:11;;;;;;;7.00;3.58;;;7.40;99.90;;;;;;5053151;28;20233;-60
2023/12/27 00:13:38;;;;;;;8.98;3.67;;;7.40;99.90;;;;;;5045609;28;20249;-60
2023/12/27 00:16:07;;;;;;;3.70;3.17;;;7.40;99.90;;;;;;5053338;28;20253;-61
2023/12/27 00:18:35;;;;;;;5.60;3.47;;;7.40;99.90;;;;;;5050667;28;20268;-60
2023/12/27 00:21:03;;;;;;;5.45;3.10;;;7.30;99.90;;;;;;5053065;28;20206;-60
2023/12/27 00:23:31;;;;;;;8.88;3.72;;;7.30;99.90;;;;;;5052267;28;20202;-59
2023/12/27 00:25:59;;;;;;;12.18;3.80;;;7.30;99.90;;;;;;5052873;28;20260;-59
2023/12/27 00:28:28;;;;;;;3.55;3.08;;;7.20;99.90;;;;;;5052604;28;20234;-60
2023/12/27 00:30:56;;;;;;;4.38;3.40;;;7.20;99.90;;;;;;5053111;28;20230;-58
2023/12/27 00:33:24;;;;;;;4.47;3.92;;;7.20;99.90;;;;;;5052614;28;20213;-59
2023/12/27 00:35:52;;;;;;;5.05;4.07;;;7.20;99.90;;;;;;5042978;28;20306;-58
2023/12/27 00:38:20;;;;;;;6.90;3.80;;;7.30;99.90;;;;;;5050642;28;20722;-59
2023/12/27 00:40:48;;;;;;;9.15;3.97;;;7.20;99.90;;;;;;5044786;28;20288;-58
2023/12/27 00:43:15;;;;;;;5.75;3.83;;;7.30;99.90;;;;;;5047306;28;20723;-61
2023/12/27 00:45:44;;;;;;;7.35;3.38;;;7.20;99.90;;;;;;5052556;28;20263;-60
2023/12/27 00:48:12;;;;;;;6.70;3.28;;;7.20;99.90;;;;;;5052862;28;20210;-59
2023/12/27 00:50:40;;;;;;;6.45;3.70;;;7.20;99.90;;;;;;5052851;28;20202;-58
2023/12/27 00:53:08;;;;;;;7.47;4.25;;;7.20;99.90;;;;;;5053028;28;20233;-56
2023/12/27 00:55:36;;;;;;;5.80;3.55;;;7.20;99.90;;;;;;5051914;28;20293;-58
2023/12/27 00:58:04;;;;;;;6.05;3.75;;;7.20;99.90;;;;;;5051547;28;20209;-58
2023/12/27 01:00:32;;;;;;;6.15;4.25;;;7.20;99.90;;;;;;5052156;28;20704;-57
2023/12/27 01:03:01;;;;;;;5.28;3.63;;;7.20;99.90;;;;;;5052248;28;20663;-58
2023/12/27 01:05:29;;;;;;;7.55;4.20;;;7.20;99.90;;;;;;5051891;28;20208;-57
2023/12/27 01:07:57;;;;;;;8.27;4.00;;;7.20;99.90;;;;;;5051903;28;20675;-57
2023/12/27 01:10:25;;;;;;;7.88;4.00;;;7.20;99.90;;;;;;5050873;28;20198;-59
2023/12/27 01:12:53;;;;;;;8.77;4.45;;;7.20;99.90;;;;;;5048386;28;20789;-60
2023/12/27 01:15:21;;;;;;;7.10;3.85;;;7.20;99.90;;;;;;5051745;28;20740;-59
2023/12/27 01:17:49;;;;;;;8.52;4.32;;;7.20;99.90;;;;;;5045653;28;20225;-58
2023/12/27 01:20:19;;;;;;;4.75;4.10;;;7.20;99.90;;;;;;5051447;28;20725;-58
2023/12/27 01:22:47;;;;;;;6.95;5.22;;;7.20;99.90;;;;;;5052009;28;20202;-59
2023/12/27 01:25:15;;;;;;;9.48;4.82;;;7.10;99.90;;;;;;5051618;28;20271;-58
2023/12/27 01:27:46;;;;;;;9.55;5.05;;;7.10;99.90;;;;;;5051302;28;20255;-59
2023/12/27 01:30:16;;;;;;;6.25;4.05;;;7.10;99.90;;;;;;5051947;28;20202;-58
2023/12/27 01:32:44;;;;;;;5.20;3.97;;;7.00;99.90;;;;;;5051874;28;20209;-58
2023/12/27 01:35:12;;;;;;;5.20;3.55;;;7.00;99.90;;;;;;5048848;28;20212;-60
2023/12/27 01:37:42;;;;;;;6.97;4.05;;;7.00;99.90;;;;;;5050086;28;20291;-58
2023/12/27 01:40:10;;;;;;;4.70;3.92;;;7.00;99.90;;;;;;5048006;28;20305;-59
2023/12/27 01:42:39;;;;;;;6.30;4.95;;;7.00;99.90;;;;;;5045904;28;20264;-58
2023/12/27 01:45:08;;;;;;;8.27;4.68;;;7.00;99.90;;;;;;5051451;28;20213;-60
2023/12/27 01:47:37;;;;;;;10.63;5.00;;;6.90;99.90;;;;;;5050796;28;20748;-58
2023/12/27 01:50:08;;;;;;;9.02;5.28;;;6.90;99.90;;;;;;5051063;28;20202;-58
2023/12/27 01:52:36;;;;;;;5.38;4.50;;;7.00;99.90;;;;;;5049652;28;20205;-57
2023/12/27 01:55:06;;;;;;;12.75;5.53;;;7.00;99.90;;;;;;5051320;28;20289;-59
2023/12/27 01:57:34;;;;;;;9.50;5.03;;;7.00;99.90;;;;;;5049409;28;20664;-58
2023/12/27 02:00:02;;;;;;;10.80;5.20;;;7.00;99.90;;;;;;5033351;28;20218;-58
2023/12/27 02:02:30;;;;;;;9.07;4.50;;;7.00;99.90;;;;;;5050490;28;20210;-59
2023/12/27 02:04:57;;;;;;;7.78;5.22;;;7.00;99.90;;;;;;5050926;28;20295;-58
2023/12/27 02:07:25;;;;;;;5.25;4.00;;;7.00;99.90;;;;;;5050293;28;20308;-58
2023/12/27 02:09:58;;;;;;;6.75;4.60;;;7.00;99.90;;;;;;5050863;28;20230;-59
2023/12/27 02:12:28;;;;;;;7.53;4.93;;;7.00;99.90;;;;;;5050993;28;20288;-59
2023/12/27 02:14:56;;;;;;;10.95;5.68;;;6.90;99.90;;;;;;5037940;28;20259;-60
2023/12/27 02:17:24;;;;;;;9.15;5.25;;;6.90;99.90;;;;;;5040922;28;20237;-60
2023/12/27 02:19:52;;;;;;;8.38;4.78;;;6.90;99.90;;;;;;5042664;28;20236;-58
2023/12/27 02:22:20;;;;;;;8.10;5.10;;;6.90;99.90;;;;;;5050990;28;20206;-58
2023/12/27 02:24:50;;;;;;;5.25;4.78;;;6.90;99.90;;;;;;5050690;28;20252;-59
2023/12/27 02:27:18;;;;;;;9.00;4.80;;;6.90;99.90;;;;;;5050198;28;20321;-59
2023/12/27 02:29:46;;;;;;;8.45;4.78;;;6.90;99.90;;;;;;5050598;28;20206;-58
2023/12/27 02:32:14;;;;;;;7.70;5.40;;;6.90;99.90;;;;;;5051203;28;20206;-60
2023/12/27 02:34:42;;;;;;;8.00;5.38;;;6.90;99.90;;;;;;5050506;28;20255;-59
2023/12/27 02:37:10;;;;;;;6.30;4.93;;;6.90;99.90;;;;;;5046482;28;20313;-59
2023/12/27 02:39:38;;;;;;;7.70;5.13;;;6.90;99.90;;;;;;5034942;28;20308;-59
2023/12/27 02:42:07;;;;;;;8.10;5.18;;;6.90;99.90;;;;;;5044112;28;20252;-60
2023/12/27 02:44:35;;;;;;;5.93;4.40;;;6.90;99.90;;;;;;5050582;28;20202;-60
2023/12/27 02:47:03;;;;;;;5.88;4.45;;;6.90;99.90;;;;;;5051584;28;20265;-58
2023/12/27 02:49:31;;;;;;;4.10;3.70;;;6.90;99.90;;;;;;5045983;28;20209;-58
2023/12/27 02:51:59;;;;;;;6.22;3.85;;;6.90;99.90;;;;;;5054705;28;20681;-60
2023/12/27 02:54:27;;;;;;;6.00;3.65;;;6.90;99.90;;;;;;5054637;28;20206;-60
2023/12/27 02:56:55;;;;;;;3.83;3.53;;;6.90;99.90;;;;;;5053865;28;20249;-60
2023/12/27 02:59:24;;;;;;;5.50;4.10;;;6.80;99.90;;;;;;5039266;28;20656;-60
2023/12/27 03:01:52;;;;;;;6.00;4.00;;;6.80;99.90;;;;;;5054584;28;20236;-58
2023/12/27 03:04:20;;;;;;;7.72;4.00;;;6.80;99.90;;;;;;5045143;28;20287;-58
2023/12/27 03:06:48;;;;;;;5.90;3.85;;;6.70;99.90;;;;;;5053642;28;20229;-60
2023/12/27 03:09:16;;;;;;;6.78;3.88;;;6.80;99.90;;;;;;5054206;28;20281;-58
2023/12/27 03:11:44;;;;;;;7.00;4.03;;;6.70;99.90;;;;;;5053676;28;20209;-58
2023/12/27 03:14:12;;;;;;;4.10;3.78;;;6.70;99.90;;;;;;5053772;28;20206;-59
2023/12/27 03:16:41;;;;;;;7.15;4.15;;;6.70;99.90;;;;;;5053805;28;20272;-58
2023/12/27 03:19:09;;;;;;;3.63;3.38;;;6.70;99.90;;;;;;5053784;28;20198;-59
2023/12/27 03:21:37;;;;;;;4.82;3.67;;;6.70;99.90;;;;;;5054172;28;20729;-59
2023/12/27 03:24:05;;;;;;;8.00;4.15;;;6.70;99.90;;;;;;5047730;28;20583;-60
2023/12/27 03:26:33;;;;;;;4.90;3.72;;;6.70;99.90;;;;;;5051483;28;20229;-60
2023/12/27 03:29:01;;;;;;;5.03;3.10;;;6.70;99.90;;;;;;5046140;28;20276;-60
2023/12/27 03:31:29;;;;;;;5.80;3.40;;;6.70;99.90;;;;;;5051877;28;20663;-60
2023/12/27 03:33:59;;;;;;;5.57;3.15;;;6.70;99.90;;;;;;5045953;28;20682;-60
2023/12/27 03:36:27;;;;;;;4.75;3.30;;;6.70;99.90;;;;;;5053290;28;20228;-61
2023/12/27 03:38:55;;;;;;;7.63;3.42;;;6.70;99.90;;;;;;5053665;28;20203;-60
2023/12/27 03:41:24;;;;;;;5.00;3.20;;;6.70;99.90;;;;;;5053578;28;20253;-58
2023/12/27 03:43:54;;;;;;;5.05;3.20;;;6.70;99.90;;;;;;5053565;28;20233;-59
2023/12/27 03:46:22;;;;;;;12.27;3.85;;;6.70;99.90;;;;;;5053084;28;20707;-60
2023/12/27 03:48:50;;;;;;;6.90;3.35;;;6.70;99.90;;;;;;5053765;28;20206;-61
2023/12/27 03:51:21;;;;;;;7.03;3.35;;;6.70;99.90;;;;;;5053350;28;20687;-61
2023/12/27 03:53:49;;;;;;;4.38;3.20;;;6.70;99.90;;;;;;5053332;28;20209;-60
2023/12/27 03:56:17;;;;;;;5.22;3.05;;;6.70;99.90;;;;;;5052743;28;20722;-61
2023/12/27 03:58:45;;;;;;;8.32;3.25;;;6.70;99.90;;;;;;5051906;28;20229;-61
2023/12/27 04:01:13;;;;;;;7.50;3.40;;;6.70;99.90;;;;;;5052704;28;20272;-60
2023/12/27 04:03:41;;;;;;;5.95;3.83;;;6.70;99.90;;;;;;5053337;28;20209;-61
2023/12/27 04:06:09;;;;;;;5.03;3.30;;;6.70;99.90;;;;;;5052994;28;20226;-61
2023/12/27 04:08:38;;;;;;;8.18;3.67;;;6.70;99.90;;;;;;5052822;28;20202;-61
2023/12/27 04:11:06;;;;;;;8.85;3.80;;;6.70;99.90;;;;;;5052958;28;20256;-60
2023/12/27 04:13:34;;;;;;;9.93;3.92;;;6.70;99.90;;;;;;5052477;28;20249;-61
2023/12/27 04:16:02;;;;;;;5.10;3.40;;;6.70;99.90;;;;;;5052482;28;20806;-60
2023/12/27 04:18:29;;;;;;;5.07;3.75;;;6.70;99.90;;;;;;5052958;28;20225;-61
2023/12/27 04:20:57;;;;;;;8.98;3.88;;;6.70;99.90;;;;;;5052647;28;20934;-61
2023/12/27 04:23:25;;;;;;;4.05;3.60;;;6.70;99.90;;;;;;5053144;28;20642;-61
2023/12/27 04:25:54;;;;;;;6.97;4.38;;;6.70;99.90;;;;;;5052295;28;20222;-61
2023/12/27 04:28:22;;;;;;;5.70;3.97;;;6.70;99.90;;;;;;5052229;28;20202;-61
2023/12/27 04:30:50;;;;;;;5.15;3.83;;;6.70;99.90;;;;;;5052475;28;20202;-61
2023/12/27 04:33:18;;;;;;;6.13;4.97;;;6.80;99.90;;;;;;5052398;28;20573;-60
2023/12/27 04:35:46;;;;;;;6.68;5.25;;;6.80;99.90;;;;;;5052185;28;20237;-61
2023/12/27 04:38:14;;;;;;;7.30;5.47;;;6.80;99.90;;;;;;5052395;28;20289;-59
2023/12/27 04:40:45;;;;;;;10.27;4.90;;;6.80;99.90;;;;;;5052567;28;20311;-61
2023/12/27 04:43:14;;;;;;;7.88;5.00;;;6.80;99.90;;;;;;5052662;28;20289;-60
2023/12/27 04:45:42;;;;;;;13.02;4.90;;;6.80;99.90;;;;;;5049678;28;20291;-61
2023/12/27 04:48:10;;;;;;;8.68;4.50;;;6.90;99.90;;;;;;5052455;28;20650;-61
2023/12/27 04:50:38;;;;;;;11.88;4.90;;;6.90;99.90;;;;;;5051945;28;20206;-60
2023/12/27 04:53:06;;;;;;;7.28;4.65;;;6.90;99.90;;;;;;5052594;28;20209;-61
2023/12/27 04:55:34;;;;;;;5.28;3.80;;;6.90;99.90;;;;;;5052171;28;20256;-61
2023/12/27 04:58:02;;;;;;;6.68;4.15;;;6.90;99.90;;;;;;5044951;28;20599;-61
2023/12/27 05:00:31;;;;;;;7.10;4.25;;;6.90;99.90;;;;;;5051980;28;20260;-61
2023/12/27 05:02:59;;;;;;;5.70;5.10;;;6.90;99.90;;;;;;5052205;28;20202;-61
2023/12/27 05:05:28;;;;;;;5.75;4.50;;;6.90;99.90;;;;;;5051872;28;20267;-61
2023/12/27 05:07:56;;;;;;;5.05;4.47;;;7.00;99.90;;;;;;5051648;28;20237;-61
2023/12/27 05:10:24;;;;;;;9.18;5.28;;;7.00;99.90;;;;;;5051772;28;20205;-61
2023/12/27 05:12:53;;;;;;;6.97;4.57;;;7.00;99.90;;;;;;5051621;28;20292;-61
2023/12/27 05:15:21;;;;;;;9.38;4.53;;;7.00;99.90;;;;;;5051628;28;20202;-61
2023/12/27 05:17:50;;;;;;;10.23;5.25;;;7.00;99.90;;;;;;5051285;28;20702;-61
2023/12/27 05:20:18;;;;;;;7.78;4.60;;;7.10;99.90;;;;;;5051971;28;20193;-60
2023/12/27 05:22:46;;;;;;;8.20;4.88;;;7.10;99.90;;;;;;5051715;28;20312;-61
2023/12/27 05:25:14;;;;;;;8.55;5.68;;;7.10;99.90;;;;;;5051712;28;20749;-61
2023/12/27 05:27:42;;;;;;;6.22;5.63;;;7.10;99.90;;;;;;5048550;28;20280;-60
2023/12/27 05:30:10;;;;;;;5.28;4.63;;;7.10;99.90;;;;;;5051266;28;20610;-61
2023/12/27 05:32:38;;;;;;;8.68;4.45;;;7.20;99.90;;;;;;5051890;28;20216;-61
2023/12/27 05:35:10;;;;;;;5.38;4.50;;;7.20;99.90;;;;;;5051464;28;20683;-60
2023/12/27 05:37:38;;;;;;;10.85;6.63;;;7.20;99.90;;;;;;5050968;28;20699;-59
2023/12/27 05:40:08;;;;;;;15.55;6.47;;;7.20;99.90;;;;;;5051518;28;20630;-60
2023/12/27 05:42:36;;;;;;;14.38;7.57;;;7.20;99.90;;;;;;5051428;28;20222;-60
2023/12/27 05:45:04;;;;;;;13.27;7.22;;;7.30;99.90;;;;;;5047944;28;20294;-61
2023/12/27 05:47:32;;;;;;;19.15;9.75;;;7.30;99.90;;;;;;5051194;28;20242;-61
2023/12/27 05:50:00;;;;;;;19.48;12.48;;;7.30;99.90;;;;;;5050988;28;20210;-61
2023/12/27 05:52:29;;;;;;;20.02;10.93;;;7.40;99.90;;;;;;5051144;28;20252;-61
2023/12/27 05:54:57;;;;;;;17.95;10.80;;;7.40;99.90;;;;;;5051238;28;20233;-61
2023/12/27 05:57:25;;;;;;;21.88;11.82;;;7.50;99.90;;;;;;5048801;28;20249;-61
2023/12/27 05:59:53;;;;;;;18.98;11.57;;;7.50;99.90;;;;;;5044709;28;20561;-61
2023/12/27 06:02:21;;;;;;;17.45;11.02;;;7.50;99.90;;;;;;5043760;28;20233;-61
2023/12/27 06:04:49;;;;;;;18.27;10.43;;;7.50;99.90;;;;;;5051070;28;20301;-61
2023/12/27 06:07:16;;;;;;;18.13;10.90;;;7.60;99.90;;;;;;5050792;28;20316;-60
2023/12/27 06:09:46;;;;;;;19.60;10.75;;;7.60;99.90;;;;;;5044725;28;20727;-61
2023/12/27 06:12:13;;;;;;;17.70;10.50;;;7.60;99.90;;;;;;5039368;28;20234;-61
2023/12/27 06:14:41;;;;;;;21.25;11.45;;;7.60;99.90;;;;;;5039412;28;20210;-61
2023/12/27 06:17:09;;;;;;;14.02;10.30;;;7.60;99.90;;;;;;5049744;28;20687;-61
2023/12/27 06:19:37;;;;;;;19.17;11.27;;;7.70;99.90;;;;;;5048274;28;20259;-61
2023/12/27 06:22:05;;;;;;;19.88;10.07;;;7.70;99.90;;;;;;5043838;28;20221;-61
2023/12/27 06:24:33;;;;;;;18.73;11.43;;;7.70;99.90;;;;;;5043896;28;20233;-61
2023/12/27 06:27:02;;;;;;;17.05;11.73;;;7.70;99.90;;;;;;5049863;28;20587;-61
2023/12/27 06:29:30;;;;;;;22.40;11.35;;;7.70;99.90;;;;;;5043942;28;21831;-61
2023/12/27 06:31:58;;;;;;;17.08;10.63;;;7.70;99.90;;;;;;5043078;28;20655;-61
2023/12/27 06:34:26;;;;;;;16.48;10.38;;;7.70;99.90;;;;;;5044573;28;20211;-61
2023/12/27 06:36:53;;;;;;;23.75;11.70;;;7.70;99.90;;;;;;5040409;28;20226;-61
2023/12/27 06:39:22;;;;;;;17.45;10.95;;;7.70;99.90;;;;;;5045638;28;20207;-61
2023/12/27 06:41:49;;;;;;;20.75;11.30;;;7.70;99.90;;;;;;5042427;28;20229;-61
2023/12/27 06:44:19;;;;;;;23.85;11.27;;;7.70;99.90;;;;;;5050206;28;20288;-61
2023/12/27 06:46:46;;;;;;;18.00;11.20;;;7.80;99.90;;;;;;5049420;28;20686;-61
2023/12/27 06:49:14;;;;;;;19.20;10.43;;;7.80;99.90;;;;;;5041803;28;20203;-61
2023/12/27 06:51:42;;;;;;;16.50;10.75;;;7.80;99.90;;;;;;5046348;28;20214;-61
2023/12/27 06:54:10;;;;;;;20.40;10.50;;;7.80;99.90;;;;;;5050467;28;20198;-61
2023/12/27 06:56:39;;;;;;;16.70;11.05;;;7.90;99.90;;;;;;5049634;28;20224;-61
2023/12/27 06:59:07;;;;;;;17.17;10.70;;;7.90;99.90;;;;;;5041862;28;20706;-61
2023/12/27 07:01:36;;;;;;;19.92;10.63;;;7.80;99.90;;;;;;5042446;28;20206;-63
2023/12/27 07:04:05;;;;;;;19.90;11.85;;;7.90;99.90;;;;;;5042010;28;20206;-63
2023/12/27 07:06:33;;;;;;;18.55;10.73;;;7.90;99.90;;;;;;5048039;28;20226;-64
2023/12/27 07:09:02;;;;;;;17.17;10.85;;;7.90;99.90;;;;;;5043090;28;20218;-64
2023/12/27 07:11:30;;;;;;;20.38;10.20;;;7.90;99.90;;;;;;5041060;28;20213;-64
2023/12/27 07:13:58;;;;;;;18.90;10.38;;;8.00;99.90;;;;;;5048092;28;20194;-63
2023/12/27 07:16:26;;;;;;;15.48;10.07;;;8.00;99.90;;;;;;5048077;28;20284;-63
2023/12/27 07:18:55;;;;;;;14.77;9.23;;;8.00;99.90;;;;;;5041359;28;20234;-63
2023/12/27 07:21:23;;;;;;;17.85;9.82;;;8.00;99.90;;;;;;5048696;28;20301;-64
2023/12/27 07:23:51;;;;;;;19.95;9.85;;;8.00;99.90;;;;;;5049817;28;20275;-63
2023/12/27 07:26:19;;;;;;;18.67;9.65;;;8.00;99.90;;;;;;5049724;28;20263;-64
2023/12/27 07:28:47;;;;;;;21.10;10.25;;;8.00;99.90;;;;;;5050162;28;20214;-64
2023/12/27 07:31:15;;;;;;;22.58;10.80;;;8.00;99.90;;;;;;5047564;28;20291;-64
2023/12/27 07:33:43;;;;;;;21.02;10.50;;;8.00;99.90;;;;;;5047389;28;20233;-64
2023/12/27 07:36:12;;;;;;;18.63;10.50;;;8.00;99.90;;;;;;5045625;28;20229;-63
2023/12/27 07:38:40;;;;;;;16.52;10.13;;;8.00;99.90;;;;;;5053486;28;20210;-63
2023/12/27 07:41:08;;;;;;;15.80;10.60;;;8.00;99.90;;;;;;5051405;28;20558;-62
2023/12/27 07:43:36;;;;;;;17.33;10.05;;;8.00;99.90;;;;;;5052676;28;20249;-64
2023/12/27 07:46:04;;;;;;;18.23;10.65;;;8.00;99.90;;;;;;5052911;28;20238;-64
2023/12/27 07:48:32;;;;;;;18.85;10.95;;;8.00;99.90;;;;;;5051718;28;20297;-63
2023/12/27 07:51:00;;;;;;;19.40;10.57;;;8.00;99.90;;;;;;5043547;28;20214;-64
2023/12/27 07:53:30;;;;;;;19.05;9.73;;;8.00;99.90;;;;;;5052474;28;20198;-64
2023/12/27 07:55:58;;;;;;;21.08;11.43;;;8.00;99.90;;;;;;5052597;28;20659;-63
2023/12/27 07:58:25;;;;;;;19.42;11.23;;;8.00;99.90;;;;;;5053049;28;20198;-63
2023/12/27 08:00:53;;;;;;;18.95;10.40;;;8.10;99.90;;;;;;5053929;28;20683;-63
2023/12/27 08:03:22;;;;;;;14.77;9.68;;;8.10;99.90;;;;;;5050865;28;20222;-63
2023/12/27 08:05:51;;;;;;;17.33;10.85;;;8.10;99.90;;;;;;5054836;28;20214;-63
2023/12/27 08:08:19;;;;;;;18.10;9.93;;;8.10;99.90;;;;;;5058273;28;20225;-63
2023/12/27 08:10:48;;;;;;;17.38;9.80;;;8.10;99.90;;;;;;5056708;28;20239;-63
2023/12/27 08:13:16;;;;;;;17.13;9.45;;;8.20;99.90;;;;;;5055212;28;20287;-63
2023/12/27 08:15:44;;;;;;;17.08;9.18;;;8.20;99.90;;;;;;5054712;28;20744;-63
2023/12/27 08:18:12;;;;;;;18.95;9.20;;;8.20;99.90;;;;;;5055864;28;20289;-63
2023/12/27 08:20:40;;;;;;;14.63;8.82;;;8.20;99.90;;;;;;5048702;28;20214;-63
2023/12/27 08:23:08;;;;;;;12.30;8.35;;;8.20;99.90;;;;;;5051063;28;20225;-63
2023/12/27 08:25:36;;;;;;;11.93;8.57;;;8.20;99.90;;;;;;5052151;28;20206;-64
2023/12/27 08:28:08;;;;;;;12.35;7.40;;;8.30;99.90;;;;;;5045800;28;20205;-63
2023/12/27 08:30:35;;;;;;;10.90;7.40;;;8.30;99.90;;;;;;5038725;28;20298;-62
2023/12/27 08:33:06;;;;;;;17.13;7.90;;;8.30;99.90;;;;;;5041369;28;20264;-62
2023/12/27 08:35:34;;;;;;;10.77;6.93;;;8.40;99.90;;;;;;5054156;28;20208;-63
2023/12/27 08:38:02;;;;;;;16.98;7.18;;;8.40;99.90;;;;;;5045963;28;20292;-63
2023/12/27 08:40:30;;;;;;;14.07;6.95;;;8.50;99.90;;;;;;5054200;28;20659;-63
2023/12/27 08:42:58;;;;;;;14.95;5.90;;;8.50;99.90;;;;;;5054327;28;20222;-63
2023/12/27 08:45:27;;;;;;;7.82;5.65;;;8.50;99.90;;;;;;5053656;28;20205;-63
2023/12/27 08:47:55;;;;;;;8.60;5.38;;;8.60;99.90;;;;;;5048017;28;20309;-63
2023/12/27 08:50:24;;;;;;;12.93;5.53;;;8.60;99.90;;;;;;5049544;28;20577;-62
2023/12/27 08:52:52;;;;;;;12.82;5.40;;;8.60;99.90;;;;;;5046626;28;20210;-64
2023/12/27 08:55:19;;;;;;;8.10;4.60;;;8.60;99.90;;;;;;5053732;28;20304;-63
2023/12/27 08:57:47;;;;;;;11.70;5.32;;;8.60;99.90;;;;;;5054053;28;20279;-63
2023/12/27 09:00:18;;;;;;;7.57;4.97;;;8.60;99.90;;;;;;5037768;28;20687;-63
2023/12/27 09:02:48;;;;;;;11.73;5.43;;;8.70;99.90;;;;;;5050154;28;20332;-63
2023/12/27 09:05:16;;;;;;;11.00;5.72;;;8.70;99.90;;;;;;5041875;28;20267;-64
2023/12/27 09:07:44;;;;;;;7.18;4.75;;;8.70;99.90;;;;;;5048566;28;20275;-63
2023/12/27 09:10:11;;;;;;;8.15;4.20;;;8.70;99.90;;;;;;5053367;28;20201;-63
2023/12/27 09:12:39;;;;;;;9.48;4.25;;;8.70;99.90;;;;;;5052699;28;20630;-63
2023/12/27 09:15:08;;;;;;;13.75;4.93;;;8.70;99.90;;;;;;5052663;28;20643;-64
2023/12/27 09:17:36;;;;;;;8.00;4.60;;;8.80;99.90;;;;;;5051932;28;20833;-64
2023/12/27 09:20:07;;;;;;;11.65;4.97;;;8.90;99.90;;;;;;5052565;28;20234;-64
2023/12/27 09:22:36;;;;;;;11.48;4.18;;;8.90;99.90;;;;;;5049260;28;20229;-63
2023/12/27 09:25:05;;;;;;;9.77;4.20;;;9.00;99.90;;;;;;5052803;28;20276;-63
2023/12/27 09:27:33;;;;;;;8.93;4.38;;;9.20;99.90;;;;;;5052271;28;20344;-63
2023/12/27 09:30:01;;;;;;;9.27;3.83;;;9.30;99.90;;;;;;5051804;28;20206;-63
2023/12/27 09:32:29;;;;;;;9.73;3.72;;;9.30;99.90;;;;;;5045386;28;20665;-63
2023/12/27 09:34:57;;;;;;;8.27;4.18;;;9.40;99.90;;;;;;5052480;28;20288;-63
2023/12/27 09:37:26;;;;;;;4.97;3.60;;;9.50;99.90;;;;;;5052042;28;20245;-61
2023/12/27 09:39:54;;;;;;;8.85;3.55;;;9.50;99.90;;;;;;5052900;28;20209;-63
2023/12/27 09:42:22;;;;;;;10.68;3.72;;;9.50;99.90;;;;;;5051987;28;20244;-64
2023/12/27 09:44:50;;;;;;;8.25;3.63;;;9.50;99.90;;;;;;5052346;28;20233;-63
2023/12/27 09:47:18;;;;;;;9.93;3.35;;;9.50;99.90;;;;;;5040537;28;20261;-63
2023/12/27 09:49:46;;;;;;;11.57;3.53;;;9.50;99.90;;;;;;5052158;28;20241;-63
2023/12/27 09:52:14;;;;;;;7.88;3.33;;;9.50;99.90;;;;;;5052011;28;20225;-63
2023/12/27 09:54:43;;;;;;;5.95;2.90;;;9.50;99.90;;;;;;5052328;28;20256;-63
2023/12/27 09:57:11;;;;;;;6.20;3.13;;;9.50;99.90;;;;;;5051048;28;20299;-64
2023/12/27 09:59:41;;;;;;;8.55;3.08;;;9.40;99.90;;;;;;5052464;28;20213;-64
2023/12/27 10:02:14;;;;;;;4.95;2.85;;;9.40;99.90;;;;;;5052113;28;20210;-64
2023/12/27 10:04:46;;;;;;;5.68;2.97;;;9.40;99.90;;;;;;5052444;28;20260;-62
2023/12/27 10:07:15;;;;;;;6.28;2.78;;;9.40;99.90;;;;;;5051638;28;20340;-63
2023/12/27 10:09:44;;;;;;;11.57;3.05;;;9.40;99.90;;;;;;5044439;28;20218;-64
2023/12/27 10:12:13;;;;;;;5.80;2.80;;;9.40;99.90;;;;;;5043480;28;20244;-63
2023/12/27 10:14:40;;;;;;;6.78;2.35;;;9.30;99.90;;;;;;5051972;28;20591;-63
2023/12/27 10:17:08;;;;;;;5.78;2.42;;;9.20;99.90;;;;;;5051484;28;20714;-63
2023/12/27 10:19:40;;;;;;;9.38;2.78;;;9.20;99.90;;;;;;5051518;28;20229;-63
2023/12/27 10:22:08;;;;;;;6.63;2.28;;;9.20;99.90;;;;;;5051247;28;20212;-63
2023/12/27 10:24:36;;;;;;;8.45;2.67;;;9.20;99.90;;;;;;5052264;28;20253;-63
2023/12/27 10:27:06;;;;;;;7.78;2.40;;;9.20;99.90;;;;;;5051014;28;20466;-63
2023/12/27 10:29:34;;;;;;;7.85;2.58;;;9.20;99.90;;;;;;5051630;28;20201;-63
2023/12/27 10:32:02;;;;;;;5.40;2.28;;;9.30;99.90;;;;;;5050292;28;20230;-63
2023/12/27 10:34:30;;;;;;;11.00;2.38;;;9.30;99.90;;;;;;5044662;28;20224;-63
2023/12/27 10:36:59;;;;;;;11.25;2.58;;;9.30;99.90;;;;;;5047810;28;20233;-64
2023/12/27 10:39:26;;;;;;;7.03;2.58;;;9.30;99.90;;;;;;5051485;28;20209;-61
2023/12/27 10:41:55;;;;;;;4.25;2.30;;;9.40;99.90;;;;;;5051120;28;20656;-62
2023/12/27 10:44:24;;;;;;;8.68;2.97;;;9.40;99.90;;;;;;5043684;28;20308;-62
2023/12/27 10:46:53;;;;;;;6.60;2.42;;;9.50;99.90;;;;;;5050500;28;20742;-64
2023/12/27 10:49:21;;;;;;;6.55;2.53;;;9.50;99.90;;;;;;5039474;28;20659;-63
2023/12/27 10:51:49;;;;;;;5.75;2.40;;;9.50;99.90;;;;;;5051683;28;20213;-63
2023/12/27 10:54:17;;;;;;;8.57;2.33;;;9.50;99.90;;;;;;5052430;28;20228;-62
2023/12/27 10:56:45;;;;;;;7.63;2.40;;;9.50;99.90;;;;;;5051847;28;20230;-63
2023/12/27 10:59:13;;;;;;;8.35;2.83;;;9.50;99.90;;;;;;5051867;28;20229;-64
2023/12/27 11:01:43;;;;;;;6.53;2.90;;;9.50;99.90;;;;;;5051479;28;20241;-64
2023/12/27 11:04:12;;;;;;;6.22;2.25;;;9.50;99.90;;;;;;5052799;28;20226;-63
2023/12/27 11:06:41;;;;;;;5.22;2.05;;;9.50;99.90;;;;;;5052668;28;20264;-63
2023/12/27 11:09:09;;;;;;;9.73;2.63;;;9.50;99.90;;;;;;5055794;28;20637;-64
2023/12/27 11:11:38;;;;;;;6.00;1.80;;;9.50;99.90;;;;;;5056046;28;20206;-63
2023/12/27 11:14:07;;;;;;;7.13;2.08;;;9.50;99.90;;;;;;5056188;28;20238;-63
2023/12/27 11:16:36;;;;;;;5.85;2.00;;;9.50;99.90;;;;;;5055409;28;20655;-63
2023/12/27 11:19:06;;;;;;;5.95;2.22;;;9.50;99.90;;;;;;5056328;28;20291;-63
2023/12/27 11:21:34;;;;;;;6.63;2.38;;;9.50;99.90;;;;;;5056250;28;20202;-63
2023/12/27 11:24:03;;;;;;;7.72;2.08;;;9.60;99.90;;;;;;5055249;28;20210;-64
2023/12/27 11:26:34;;;;;;;4.80;2.05;;;9.60;99.90;;;;;;5054824;28;20230;-64
2023/12/27 11:29:02;;;;;;;8.82;2.13;;;9.70;99.90;;;;;;5056105;28;20209;-63
2023/12/27 11:31:30;;;;;;;8.32;2.65;;;9.70;99.90;;;;;;5055188;28;20234;-64
2023/12/27 11:33:58;;;;;;;6.50;2.33;;;9.70;99.90;;;;;;5046256;28;20660;-61
2023/12/27 11:36:29;;;;;;;4.55;2.38;;;9.70;99.90;;;;;;5054148;28;20683;-63
2023/12/27 11:38:57;;;;;;;8.75;2.90;;;9.80;99.90;;;;;;5054399;28;20205;-63
2023/12/27 11:41:26;;;;;;;7.28;2.75;;;9.80;99.90;;;;;;5054200;28;20246;-63
2023/12/27 11:43:56;;;;;;;11.00;2.30;;;9.80;99.90;;;;;;5054377;28;20206;-62
2023/12/27 11:46:26;;;;;;;3.30;2.50;;;9.90;99.90;;;;;;5045844;28;20225;-63
2023/12/27 11:48:54;;;;;;;9.55;2.30;;;9.90;99.90;;;;;;5054398;28;20743;-63
2023/12/27 11:51:30;;;;;;;9.55;2.75;;;10.00;99.90;;;;;;5054292;28;20613;-62
2023/12/27 11:53:58;;;;;;;7.85;2.28;;;10.00;99.90;;;;;;5054446;28;20221;-62
2023/12/27 11:56:28;;;;;;;4.57;2.25;;;10.00;99.90;;;;;;5045472;28;20260;-64
2023/12/27 11:58:56;;;;;;;8.38;2.55;;;10.00;99.90;;;;;;5053604;28;20259;-63
2023/12/27 12:01:28;;;;;;;5.47;2.42;;;10.00;99.90;;;;;;5053225;28;20198;-64
2023/12/27 12:04:27;;;;;;;6.50;3.03;;;10.10;99.90;;;;;;5053528;28;20210;-64
2023/12/27 12:07:29;;;;;;;8.05;2.78;;;10.20;99.90;;;;;;5048952;28;20221;-64
2023/12/27 12:09:58;;;;;;;7.07;1.90;;;10.20;99.90;;;;;;5049637;28;20275;-64
2023/12/27 12:12:27;;;;;;;2.53;2.25;;;10.20;99.90;;;;;;5044955;28;20206;-64
2023/12/27 12:14:55;;;;;;;7.50;2.35;;;10.30;99.90;;;;;;5053482;28;20210;-63
2023/12/27 12:17:26;;;;;;;3.00;2.15;;;10.30;99.90;;;;;;5052635;28;20233;-63
2023/12/27 12:19:55;;;;;;;11.10;3.10;;;10.30;99.90;;;;;;5052336;28;20205;-64
2023/12/27 12:22:23;;;;;;;8.73;2.47;;;10.30;99.90;;;;;;5052866;28;20240;-63
2023/12/27 12:24:51;;;;;;;6.32;2.50;;;10.20;99.90;;;;;;5052946;28;20241;-63
2023/12/27 12:27:23;;;;;;;7.30;2.55;;;10.20;99.90;;;;;;5052137;28;20226;-63
2023/12/27 12:29:53;;;;;;;5.13;2.00;;;10.10;99.90;;;;;;5053149;28;20210;-63
2023/12/27 12:32:21;;;;;;;3.88;2.47;;;10.10;99.90;;;;;;5049746;28;20574;-63
2023/12/27 12:34:49;;;;;;;6.32;2.33;;;10.10;99.90;;;;;;5047933;28;20217;-62
2023/12/27 12:37:17;;;;;;;9.98;2.75;;;10.00;99.90;;;;;;5052203;28;20233;-62
2023/12/27 12:39:45;;;;;;;9.05;2.72;;;10.00;99.90;;;;;;5052799;28;20234;-63
2023/12/27 12:42:13;;;;;;;9.13;2.33;;;10.00;99.90;;;;;;5052094;28;20592;-64
2023/12/27 12:44:42;;;;;;;7.05;2.30;;;10.00;99.90;;;;;;5052988;28;20206;-63
2023/12/27 12:47:10;;;;;;;4.00;2.20;;;10.00;99.90;;;;;;5051986;28;20261;-64
2023/12/27 12:49:38;;;;;;;6.32;2.95;;;10.00;99.90;;;;;;5052412;28;20217;-64
2023/12/27 12:52:07;;;;;;;6.97;2.72;;;10.10;99.90;;;;;;5052116;28;20700;-63
2023/12/27 12:54:35;;;;;;;5.25;2.78;;;10.10;99.90;;;;;;5052353;28;20671;-64
2023/12/27 12:57:04;;;;;;;8.90;2.88;;;10.20;99.90;;;;;;5052014;28;20287;-62